Weather History for Roseau, MN

Change the Weather History Date:

Friday, April 27, 2012

  Actual Average Record
Temperature  
Mean Temperature 42 °F -  
Max Temperature 53 °F 56 °F 92 °F (1952)
Min Temperature 32 °F 32 °F 9 °F (1956)
Degree Days  
Heating Degree Days 22    
Moisture  
Dew Point 22 °F    
Average Humidity 42    
Maximum Humidity 70    
Minimum Humidity 26    
Precipitation  
Precipitation 0.00 in - - ()
Sea Level Pressure  
Sea Level Pressure 30.16 in    
Wind  
Wind Speed 9 mph (East)    
Max Wind Speed 22 mph    
Max Gust Speed 28 mph    
Visibility 10 miles    
Events      
Averages and records for this station are not official NWS values.
T = Trace of Precipitation, MM = Missing Value Source: NWS Daily Summary

Daily Weather History Graph

Daily Weather History Graph

Search for Another Location

Airport:

Trip Planner

Search our weather history database for the weather conditions in past years. The results will help you decide how hot, cold, wet, or windy it might be!

Date:

Astronomy

Apr. 27, 2012 Rise Set
Actual Time 6:08 AM CDT 8:33 PM CDT
Civil Twilight 5:33 AM CDT 9:08 PM CDT
Nautical Twilight 4:49 AM CDT 9:52 PM CDT
Astronomical Twilight 3:59 AM CDT 10:43 PM CDT
Moon 10:39 AM CDT (4/27) 1:29 AM CDT (4/27)
Length of Visible Light 15h 34m
Length of Day
14h 24m
Waxing Crescent, 33% of the Moon is Illuminated
Apr 27
Waxing Crescent
Apr 29
First Quarter
May 5
Full
May 12
Last Quarter
May 20
New

Hourly Weather History & Observations

Time (CDT) Temp. Windchill Dew Point Humidity Pressure Visibility Wind Dir Wind Speed Gust Speed Precip Events Conditions
12:15 AM 35.6 °F - 23.0 °F 60% 30.21 in 10.0 mi Calm Calm - N/A   Clear
12:34 AM 33.8 °F 30.8 °F 23.0 °F 65% 30.21 in 10.0 mi East 3.5 mph - N/A   Clear
12:54 AM 33.8 °F 28.6 °F 23.0 °F 65% 30.20 in 10.0 mi East 5.8 mph - N/A   Clear
1:14 AM 32.0 °F 26.4 °F 21.2 °F 64% 30.20 in 10.0 mi East 5.8 mph - N/A   Clear
1:34 AM 32.0 °F 25.6 °F 21.2 °F 64% 30.21 in 10.0 mi East 6.9 mph - N/A   Clear
1:54 AM 33.8 °F 28.6 °F 23.0 °F 65% 30.21 in 10.0 mi East 5.8 mph - N/A   Clear
2:14 AM 32.0 °F 28.7 °F 23.0 °F 69% 30.21 in 10.0 mi East 3.5 mph - N/A   Clear
2:34 AM 33.8 °F 27.7 °F 24.8 °F 70% 30.20 in 10.0 mi East 6.9 mph - N/A   Clear
2:53 AM 37.4 °F 31.4 °F 26.6 °F 65% 30.19 in 10.0 mi East 8.1 mph - N/A   Clear
3:14 AM 37.4 °F 31.4 °F 26.6 °F 65% 30.19 in 10.0 mi East 8.1 mph - N/A   Clear
3:34 AM 37.4 °F 32.1 °F 26.6 °F 65% 30.19 in 10.0 mi ESE 6.9 mph - N/A   Clear
3:53 AM 35.6 °F 30.7 °F 26.6 °F 70% 30.20 in 10.0 mi East 5.8 mph - N/A   Clear
4:14 AM 37.4 °F 31.4 °F 26.6 °F 65% 30.20 in 10.0 mi ESE 8.1 mph - N/A   Clear
4:34 AM 37.4 °F 31.4 °F 26.6 °F 65% 30.20 in 10.0 mi ESE 8.1 mph - N/A   Clear
4:54 AM 35.6 °F 29.2 °F 24.8 °F 65% 30.20 in 10.0 mi East 8.1 mph - N/A   Clear
5:14 AM 35.6 °F 30.7 °F 24.8 °F 65% 30.21 in 10.0 mi East 5.8 mph - N/A   Clear
5:34 AM 35.6 °F 29.9 °F 24.8 °F 65% 30.20 in 10.0 mi ESE 6.9 mph - N/A   Clear
5:53 AM 35.6 °F 29.9 °F 24.8 °F 65% 30.20 in 10.0 mi East 6.9 mph - N/A   Clear
6:14 AM 33.8 °F 27.0 °F 24.8 °F 70% 30.20 in 10.0 mi East 8.1 mph - N/A   Clear
6:34 AM 33.8 °F 27.0 °F 24.8 °F 70% 30.21 in 10.0 mi East 8.1 mph - N/A   Clear
7:14 AM 37.4 °F 30.8 °F 24.8 °F 60% 30.20 in 10.0 mi East 9.2 mph - N/A   Clear
7:34 AM 39.2 °F 32.0 °F 23.0 °F 52% 30.21 in 10.0 mi ESE 11.5 mph - N/A   Clear
7:54 AM 39.2 °F 33.0 °F 24.8 °F 56% 30.22 in 10.0 mi ESE 9.2 mph - N/A   Clear
8:14 AM 42.8 °F 36.6 °F 21.2 °F 42% 30.21 in 10.0 mi ESE 11.5 mph - N/A   Clear
8:34 AM 42.8 °F 36.6 °F 21.2 °F 42% 30.21 in 10.0 mi ESE 11.5 mph - N/A   Clear
8:54 AM 44.6 °F 38.4 °F 19.4 °F 37% 30.22 in 10.0 mi ESE 12.7 mph - N/A   Clear
9:14 AM 46.4 °F 40.1 °F 19.4 °F 34% 30.21 in 10.0 mi ESE 15.0 mph 19.6 mph N/A   Clear
9:34 AM 46.4 °F 40.1 °F 19.4 °F 34% 30.21 in 10.0 mi ESE 15.0 mph 20.7 mph N/A   Clear
9:54 AM 48.2 °F - 19.4 °F 32% 30.20 in 10.0 mi ESE 16.1 mph - N/A   Clear
10:14 AM 48.2 °F - 19.4 °F 32% 30.20 in 10.0 mi ESE 12.7 mph - N/A   Clear
10:34 AM 48.2 °F - 21.2 °F 34% 30.19 in 10.0 mi SE 16.1 mph 20.7 mph N/A   Clear
10:54 AM 48.2 °F - 21.2 °F 34% 30.19 in 10.0 mi ESE 10.4 mph 18.4 mph N/A   Clear
11:14 AM 48.2 °F - 19.4 °F 32% 30.18 in 10.0 mi East 13.8 mph - N/A   Clear
11:34 AM 51.8 °F - 21.2 °F 30% 30.18 in 10.0 mi ESE 13.8 mph 20.7 mph N/A   Clear
11:54 AM 50.0 °F - 21.2 °F 32% 30.18 in 10.0 mi ESE 12.7 mph - N/A   Clear
12:14 PM 50.0 °F - 21.2 °F 32% 30.18 in 10.0 mi ESE 11.5 mph 18.4 mph N/A   Clear
12:34 PM 51.8 °F - 21.2 °F 30% 30.18 in 10.0 mi East 13.8 mph - N/A   Clear
12:54 PM 51.8 °F - 19.4 °F 28% 30.17 in 10.0 mi ESE 12.7 mph 18.4 mph N/A   Clear
1:14 PM 53.6 °F - 19.4 °F 26% 30.17 in 10.0 mi East 12.7 mph 20.7 mph N/A   Clear
1:34 PM 53.6 °F - 19.4 °F 26% 30.16 in 10.0 mi ESE 15.0 mph - N/A   Clear
1:54 PM 53.6 °F - 19.4 °F 26% 30.15 in 10.0 mi East 12.7 mph 19.6 mph N/A   Clear
2:14 PM 53.6 °F - 19.4 °F 26% 30.15 in 10.0 mi ESE 9.2 mph 18.4 mph N/A   Clear
2:34 PM 53.6 °F - 19.4 °F 26% 30.14 in 10.0 mi East 10.4 mph 17.3 mph N/A   Clear
2:54 PM 53.6 °F - 19.4 °F 26% 30.14 in 10.0 mi ESE 11.5 mph - N/A   Clear
3:14 PM 53.6 °F - 19.4 °F 26% 30.12 in 10.0 mi East 13.8 mph - N/A   Clear
3:54 PM 51.8 °F - 19.4 °F 28% 30.12 in 10.0 mi ENE 20.7 mph - N/A   Clear
4:14 PM 53.6 °F - 21.2 °F 28% 30.11 in 10.0 mi ENE 18.4 mph - N/A   Clear
4:34 PM 53.6 °F - 21.2 °F 28% 30.10 in 10.0 mi ENE 19.6 mph - N/A   Clear
4:54 PM 53.6 °F - 21.2 °F 28% 30.10 in 10.0 mi ENE 21.9 mph - N/A   Clear
5:14 PM 53.6 °F - 21.2 °F 28% 30.10 in 10.0 mi ENE 20.7 mph - N/A   Clear
5:34 PM 51.8 °F - 19.4 °F 28% 30.10 in 10.0 mi East 20.7 mph - N/A   Clear
5:54 PM 51.8 °F - 19.4 °F 28% 30.10 in 10.0 mi ENE 20.7 mph 27.6 mph N/A   Clear
6:14 PM 51.8 °F - 19.4 °F 28% 30.10 in 10.0 mi ENE 19.6 mph 25.3 mph N/A   Clear
6:34 PM 51.8 °F - 19.4 °F 28% 30.10 in 10.0 mi ENE 18.4 mph 24.2 mph N/A   Clear
6:54 PM 51.8 °F - 19.4 °F 28% 30.10 in 10.0 mi ENE 19.6 mph - N/A   Clear
7:14 PM 51.8 °F - 21.2 °F 30% 30.10 in 10.0 mi ENE 15.0 mph - N/A   Clear
7:34 PM 51.8 °F - 21.2 °F 30% 30.10 in 10.0 mi East 15.0 mph - N/A   Clear
7:54 PM 50.0 °F - 23.0 °F 35% 30.09 in 10.0 mi ENE 16.1 mph - N/A   Clear
8:14 PM 50.0 °F - 23.0 °F 35% 30.09 in 10.0 mi East 12.7 mph - N/A   Clear
8:34 PM 48.2 °F - 21.2 °F 34% 30.10 in 10.0 mi East 11.5 mph - N/A   Clear
8:54 PM 48.2 °F - 21.2 °F 34% 30.10 in 10.0 mi East 11.5 mph - N/A   Clear
9:14 PM 48.2 °F - 19.4 °F 32% 30.11 in 10.0 mi East 12.7 mph - N/A   Clear
9:34 PM 48.2 °F - 19.4 °F 32% 30.11 in 10.0 mi East 13.8 mph 17.3 mph N/A   Clear
9:54 PM 48.2 °F - 19.4 °F 32% 30.11 in 10.0 mi East 12.7 mph - N/A   Clear
10:14 PM 48.2 °F - 17.6 °F 30% 30.11 in 10.0 mi East 13.8 mph - N/A   Clear
11:14 PM 48.2 °F - 17.6 °F 30% 30.11 in 10.0 mi East 10.4 mph - N/A   Clear
11:34 PM 48.2 °F - 17.6 °F 30% 30.11 in 10.0 mi East 11.5 mph - N/A   Clear
11:54 PM 46.4 °F 41.5 °F 19.4 °F 34% 30.11 in 10.0 mi East 10.4 mph - N/A   Clear